Time;durP1;ratioP1;P1;durP2;ratioP2;P2;SDS_P1;SDS_P2;PMS_P1;PMS_P2;Temp;Humidity;BMP_temperature;BMP_pressure;BME280_temperature;BME280_humidity;BME280_pressure;Samples;Min_cycle;Max_cycle;Signal;HPM_P1;HPM_P2
2022/10/20 00:02:25;;;;;;;11.25;5.43;;;8.80;99.90;;;;;;5111991;28;20118;-75
2022/10/20 00:04:50;;;;;;;10.45;5.85;;;8.80;99.90;;;;;;5113462;28;20096;-75
2022/10/20 00:07:16;;;;;;;13.00;5.55;;;10.30;99.90;;;;;;5093409;28;20401;-75
2022/10/20 00:09:42;;;;;;;13.35;5.70;;;8.80;99.90;;;;;;5077861;28;20043;-74
2022/10/20 00:12:07;;;;;;;9.73;5.80;;;8.70;99.90;;;;;;5116403;28;20039;-74
2022/10/20 00:14:33;;;;;;;13.52;6.05;;;10.00;99.90;;;;;;5089911;28;20036;-75
2022/10/20 00:17:00;;;;;;;12.93;5.70;;;9.70;99.90;;;;;;5099197;28;20525;-74
2022/10/20 00:19:26;;;;;;;12.07;6.07;;;8.70;99.90;;;;;;5116976;28;20071;-75
2022/10/20 00:21:52;;;;;;;9.88;5.38;;;9.50;99.90;;;;;;5117055;28;20047;-75
2022/10/20 00:24:20;;;;;;;13.05;5.35;;;9.10;99.90;;;;;;5098473;28;20047;-75
2022/10/20 00:26:46;;;;;;;12.13;5.68;;;8.60;99.90;;;;;;5116941;28;20498;-74
2022/10/20 00:29:12;;;;;;;9.15;5.80;;;8.50;99.90;;;;;;5116688;28;20126;-75
2022/10/20 00:31:37;;;;;;;10.65;5.78;;;9.90;99.90;;;;;;5098421;28;20430;-75
2022/10/20 00:34:03;;;;;;;11.98;5.55;;;8.50;99.90;;;;;;5117067;28;20189;-75
2022/10/20 00:36:29;;;;;;;9.48;5.85;;;9.50;99.90;;;;;;5095359;28;20040;-75
2022/10/20 00:39:03;;;;;;;9.52;5.30;;;8.40;99.90;;;;;;5095092;28;20093;-75
2022/10/20 00:41:29;;;;;;;11.90;5.80;;;8.40;99.90;;;;;;5095838;28;20101;-74
2022/10/20 00:43:57;;;;;;;9.07;5.22;;;8.40;99.90;;;;;;5095840;28;20531;-74
2022/10/20 00:46:26;;;;;;;9.70;5.43;;;8.30;99.90;;;;;;5095465;28;20415;-75
2022/10/20 00:48:55;;;;;;;10.05;5.45;;;8.30;99.90;;;;;;5096138;28;20490;-75
2022/10/20 00:51:25;;;;;;;8.73;5.68;;;9.80;99.90;;;;;;5096547;28;20028;-74
2022/10/20 00:53:54;;;;;;;12.07;5.75;;;8.30;99.90;;;;;;5095915;28;20460;-74
2022/10/20 00:56:21;;;;;;;11.52;5.65;;;8.30;99.90;;;;;;5094872;28;20043;-75
2022/10/20 00:58:48;;;;;;;10.57;5.93;;;8.30;99.90;;;;;;5073824;28;20432;-74
2022/10/20 01:01:14;;;;;;;11.73;5.63;;;8.20;99.90;;;;;;5091247;28;20144;-74
2022/10/20 01:03:46;;;;;;;12.20;5.55;;;8.20;99.90;;;;;;5078316;28;20071;-75
2022/10/20 01:06:15;;;;;;;12.00;5.50;;;8.20;99.90;;;;;;5094867;28;20492;-74
2022/10/20 01:08:41;;;;;;;12.02;5.72;;;9.30;99.90;;;;;;5095484;28;20047;-75
2022/10/20 01:11:19;;;;;;;8.82;6.07;;;8.10;99.90;;;;;;5095460;28;20111;-74
2022/10/20 01:13:59;;;;;;;10.07;5.47;;;8.10;99.90;;;;;;5095501;28;20044;-75
2022/10/20 01:16:46;;;;;;;7.88;5.15;;;8.10;99.90;;;;;;5095903;28;20044;-74
2022/10/20 01:19:49;;;;;;;10.60;5.50;;;8.10;99.90;;;;;;5094304;28;20043;-75
2022/10/20 01:22:47;;;;;;;9.40;5.35;;;8.10;99.90;;;;;;5075020;28;20052;-73
2022/10/20 01:25:33;;;;;;;9.23;5.90;;;8.10;99.90;;;;;;5081790;28;20115;-75
2022/10/20 01:28:15;;;;;;;10.17;5.00;;;8.10;99.90;;;;;;5095058;28;20177;-75
2022/10/20 01:30:45;;;;;;;9.13;5.53;;;8.00;99.90;;;;;;5095678;28;20140;-75
2022/10/20 01:33:40;;;;;;;12.95;6.60;;;8.00;99.90;;;;;;5077069;28;20507;-75
2022/10/20 01:36:19;;;;;;;11.40;5.90;;;8.00;99.90;;;;;;5097825;28;20047;-75
2022/10/20 01:38:59;;;;;;;11.07;5.82;;;8.00;99.90;;;;;;5096951;28;20079;-75
2022/10/20 01:41:57;;;;;;;9.82;5.80;;;7.90;99.90;;;;;;5115455;28;20068;-75
2022/10/20 01:44:26;;;;;;;8.95;5.40;;;8.90;99.90;;;;;;5092874;28;20095;-75
2022/10/20 01:46:54;;;;;;;11.10;5.93;;;7.90;99.90;;;;;;5103560;28;20122;-75
2022/10/20 01:49:21;;;;;;;12.40;5.82;;;7.90;99.90;;;;;;5059751;28;20117;-75
2022/10/20 01:51:46;;;;;;;10.27;5.75;;;7.90;99.90;;;;;;5094707;28;20055;-75
2022/10/20 01:54:22;;;;;;;14.00;5.93;;;7.80;99.90;;;;;;5093779;28;20036;-75
2022/10/20 01:57:01;;;;;;;11.10;6.03;;;8.70;99.90;;;;;;5076879;28;20508;-75
2022/10/20 01:59:46;;;;;;;9.60;5.97;;;7.90;99.90;;;;;;5091366;28;20039;-75
2022/10/20 02:02:44;;;;;;;11.15;5.97;;;7.80;99.90;;;;;;5115107;28;20035;-75
2022/10/20 02:05:25;;;;;;;13.80;6.30;;;7.80;99.90;;;;;;5115299;28;20054;-75
2022/10/20 02:07:58;;;;;;;10.43;6.38;;;7.80;99.90;;;;;;5114713;28;20127;-75
2022/10/20 02:10:29;;;;;;;9.13;6.25;;;7.00;99.90;;;;;;5114307;28;20044;-74
2022/10/20 02:12:59;;;;;;;14.55;6.30;;;9.10;99.90;;;;;;5096303;28;20044;-75
2022/10/20 02:15:28;;;;;;;9.52;5.78;;;7.80;99.90;;;;;;5114395;28;20040;-75
2022/10/20 02:17:59;;;;;;;11.00;5.78;;;7.70;99.90;;;;;;5114584;28;20040;-75
2022/10/20 02:20:28;;;;;;;12.25;6.40;;;8.70;99.90;;;;;;5096918;28;20126;-75
2022/10/20 02:22:54;;;;;;;11.88;6.07;;;7.70;99.90;;;;;;5114601;28;20119;-75
2022/10/20 02:25:22;;;;;;;13.00;5.75;;;7.60;99.90;;;;;;5096628;28;20045;-75
2022/10/20 02:27:48;;;;;;;8.95;5.75;;;7.60;99.90;;;;;;5096387;28;20411;-75
2022/10/20 02:30:16;;;;;;;9.43;6.28;;;7.60;99.90;;;;;;5114427;28;20180;-74
2022/10/20 02:32:48;;;;;;;14.38;5.80;;;9.10;99.90;;;;;;5114458;28;20403;-75
2022/10/20 02:35:17;;;;;;;11.50;5.82;;;7.60;99.90;;;;;;5092206;28;20079;-75
2022/10/20 02:37:42;;;;;;;11.02;5.90;;;7.60;99.90;;;;;;5093988;28;20044;-75
2022/10/20 02:40:08;;;;;;;13.27;6.53;;;7.50;99.90;;;;;;5092911;28;20484;-75
2022/10/20 02:42:34;;;;;;;11.85;6.43;;;7.50;99.90;;;;;;5093387;28;20118;-74
2022/10/20 02:45:00;;;;;;;11.00;6.05;;;7.50;99.90;;;;;;5074279;28;20068;-75
2022/10/20 02:47:26;;;;;;;8.98;6.25;;;7.50;99.90;;;;;;5091881;28;20047;-75
2022/10/20 02:49:52;;;;;;;10.50;6.07;;;7.40;99.90;;;;;;5074781;28;20370;-75
2022/10/20 02:52:21;;;;;;;8.30;6.13;;;8.80;99.90;;;;;;5059182;28;20370;-75
2022/10/20 02:54:46;;;;;;;8.82;5.95;;;7.40;99.90;;;;;;5075824;28;20051;-75
2022/10/20 02:57:12;;;;;;;14.23;6.82;;;7.40;99.90;;;;;;5075581;28;20040;-75
2022/10/20 02:59:38;;;;;;;11.43;6.70;;;7.40;99.90;;;;;;5109491;28;20035;-76
2022/10/20 03:02:03;;;;;;;10.70;7.13;;;7.40;99.90;;;;;;5114339;28;20369;-75
2022/10/20 03:04:29;;;;;;;11.30;6.15;;;7.40;99.90;;;;;;5095944;28;20392;-75
2022/10/20 03:06:54;;;;;;;11.85;6.72;;;7.30;99.90;;;;;;5078915;28;20183;-75
2022/10/20 03:09:20;;;;;;;11.43;6.80;;;7.30;99.90;;;;;;5113502;28;20043;-75
2022/10/20 03:11:46;;;;;;;10.55;6.05;;;7.30;99.90;;;;;;5113720;28;20093;-75
2022/10/20 03:14:11;;;;;;;11.85;6.78;;;7.30;99.90;;;;;;5088347;28;20044;-75
2022/10/20 03:16:37;;;;;;;9.93;6.70;;;7.30;99.90;;;;;;5094638;28;20028;-75
2022/10/20 03:19:02;;;;;;;10.80;7.00;;;7.30;99.90;;;;;;5077133;28;20044;-75
2022/10/20 03:21:28;;;;;;;13.90;7.38;;;7.30;99.90;;;;;;5075317;28;20481;-75
2022/10/20 03:23:54;;;;;;;11.70;7.00;;;7.20;99.90;;;;;;5101408;28;20131;-76
2022/10/20 03:26:20;;;;;;;13.20;6.75;;;7.20;99.90;;;;;;5110516;28;20191;-75
2022/10/20 03:28:45;;;;;;;12.13;7.18;;;7.20;99.90;;;;;;5094964;28;20078;-75
2022/10/20 03:31:11;;;;;;;13.02;7.05;;;7.20;99.90;;;;;;5113669;28;20043;-76
2022/10/20 03:33:37;;;;;;;13.15;7.72;;;7.20;99.90;;;;;;5113168;28;20115;-75
2022/10/20 03:36:03;;;;;;;12.68;7.18;;;7.10;99.90;;;;;;5103657;28;20046;-75
2022/10/20 03:38:28;;;;;;;13.25;7.50;;;7.20;99.90;;;;;;5071548;28;20566;-75
2022/10/20 03:40:54;;;;;;;12.60;8.15;;;7.20;99.90;;;;;;5057844;28;20132;-75
2022/10/20 03:43:20;;;;;;;11.98;7.30;;;7.20;99.90;;;;;;5074293;28;20102;-75
2022/10/20 03:45:45;;;;;;;12.65;7.43;;;7.10;99.90;;;;;;5092168;28;20477;-75
2022/10/20 03:48:11;;;;;;;11.35;7.70;;;7.40;99.90;;;;;;5092720;28;20048;-75
2022/10/20 03:50:38;;;;;;;12.70;7.93;;;7.10;99.90;;;;;;5093474;28;20048;-75
2022/10/20 03:53:04;;;;;;;12.07;7.50;;;7.10;99.90;;;;;;5074025;28;20040;-75
2022/10/20 03:55:29;;;;;;;11.05;8.05;;;7.10;99.90;;;;;;5106486;28;20050;-75
2022/10/20 03:57:55;;;;;;;12.77;7.97;;;7.10;99.90;;;;;;5099661;28;20036;-75
2022/10/20 04:00:21;;;;;;;13.95;8.65;;;7.10;99.90;;;;;;5092715;28;20089;-75
2022/10/20 04:02:47;;;;;;;12.00;7.78;;;7.10;99.90;;;;;;5074392;28;20055;-75
2022/10/20 04:05:15;;;;;;;16.00;8.80;;;7.10;99.90;;;;;;5092778;28;20489;-75
2022/10/20 04:07:41;;;;;;;15.30;8.25;;;7.00;99.90;;;;;;5074329;28;20174;-75
2022/10/20 04:10:08;;;;;;;14.88;8.45;;;7.10;99.90;;;;;;5074275;28;20075;-75
2022/10/20 04:12:34;;;;;;;14.75;8.52;;;7.10;99.90;;;;;;5074094;28;20044;-75
2022/10/20 04:14:59;;;;;;;13.45;8.60;;;7.10;99.90;;;;;;5073438;28;20040;-75
2022/10/20 04:17:25;;;;;;;14.63;9.10;;;7.10;99.90;;;;;;5110104;28;20147;-75
2022/10/20 04:19:51;;;;;;;17.92;9.90;;;7.10;99.90;;;;;;5112495;28;20498;-75
2022/10/20 04:22:16;;;;;;;13.90;8.88;;;7.10;99.90;;;;;;5112691;28;20126;-75
2022/10/20 04:24:42;;;;;;;16.02;9.35;;;8.50;99.90;;;;;;5106449;28;20105;-75
2022/10/20 04:27:07;;;;;;;14.13;9.25;;;7.00;99.90;;;;;;5073465;28;20055;-75
2022/10/20 04:29:33;;;;;;;14.30;9.40;;;7.00;99.90;;;;;;5074101;28;20044;-75
2022/10/20 04:31:59;;;;;;;18.58;8.80;;;7.00;99.90;;;;;;5092170;28;20040;-75
2022/10/20 04:34:24;;;;;;;17.60;10.07;;;7.00;99.90;;;;;;5074104;28;20136;-75
2022/10/20 04:36:50;;;;;;;14.18;9.75;;;7.00;99.90;;;;;;5094375;28;20127;-75
2022/10/20 04:39:16;;;;;;;14.88;9.98;;;6.90;99.90;;;;;;5077297;28;20051;-75
2022/10/20 04:41:42;;;;;;;17.17;10.55;;;7.00;99.90;;;;;;5112760;28;20032;-75
2022/10/20 04:44:07;;;;;;;16.63;10.68;;;7.00;99.90;;;;;;5094196;28;20040;-75
2022/10/20 04:46:33;;;;;;;15.95;10.15;;;7.00;99.90;;;;;;5094859;28;20453;-75
2022/10/20 04:48:59;;;;;;;13.95;10.05;;;7.00;99.90;;;;;;5112636;28;20123;-74
2022/10/20 04:51:24;;;;;;;14.75;10.50;;;6.90;99.90;;;;;;5111670;28;20040;-75
2022/10/20 04:53:50;;;;;;;15.70;11.10;;;6.90;99.90;;;;;;5073953;28;20044;-75
2022/10/20 04:56:21;;;;;;;16.90;10.77;;;6.90;99.90;;;;;;5092308;28;20036;-75
2022/10/20 04:58:52;;;;;;;15.50;10.43;;;6.90;99.90;;;;;;5095695;28;20044;-75
2022/10/20 05:01:19;;;;;;;15.13;10.80;;;6.80;99.90;;;;;;5077413;28;20055;-75
2022/10/20 05:03:45;;;;;;;15.90;10.15;;;6.80;99.90;;;;;;5111552;28;20047;-75
2022/10/20 05:06:16;;;;;;;16.63;10.80;;;6.80;99.90;;;;;;5116204;28;20044;-74
2022/10/20 05:08:43;;;;;;;16.42;10.90;;;6.80;99.90;;;;;;5095374;28;20492;-75
2022/10/20 05:11:10;;;;;;;16.08;10.48;;;7.50;99.90;;;;;;5114584;28;20047;-75
2022/10/20 05:13:36;;;;;;;20.20;11.27;;;6.80;99.90;;;;;;5092523;28;20048;-75
2022/10/20 05:16:02;;;;;;;14.90;10.70;;;6.80;99.90;;;;;;5077073;28;20123;-75
2022/10/20 05:18:28;;;;;;;19.38;11.02;;;6.80;99.90;;;;;;5060076;28;20094;-75
2022/10/20 05:20:54;;;;;;;16.33;11.65;;;6.80;99.90;;;;;;5077369;28;20067;-75
2022/10/20 05:23:20;;;;;;;18.45;11.50;;;6.80;99.90;;;;;;5076923;28;20044;-75
2022/10/20 05:25:45;;;;;;;18.50;11.60;;;6.80;99.90;;;;;;5095911;28;20089;-74
2022/10/20 05:28:11;;;;;;;15.70;11.35;;;6.80;99.90;;;;;;5093079;28;20105;-75
2022/10/20 05:30:37;;;;;;;16.30;11.48;;;6.80;99.90;;;;;;5094580;28;20079;-75
2022/10/20 05:33:03;;;;;;;19.27;12.48;;;6.70;99.90;;;;;;5094671;28;20032;-75
2022/10/20 05:35:28;;;;;;;19.73;11.55;;;6.70;99.90;;;;;;5094370;28;20128;-75
2022/10/20 05:37:55;;;;;;;17.80;11.50;;;6.70;99.90;;;;;;5094509;28;20056;-75
2022/10/20 05:40:21;;;;;;;17.60;12.00;;;6.70;99.90;;;;;;5061350;28;20036;-75
2022/10/20 05:42:47;;;;;;;16.48;11.77;;;6.70;99.90;;;;;;5093887;28;20404;-75
2022/10/20 05:45:13;;;;;;;16.67;11.65;;;6.80;99.90;;;;;;5075039;28;20040;-75
2022/10/20 05:47:38;;;;;;;22.58;12.43;;;6.80;99.90;;;;;;5095263;28;20028;-75
2022/10/20 05:50:04;;;;;;;16.25;12.38;;;7.80;99.90;;;;;;5059714;28;20103;-75
2022/10/20 05:52:30;;;;;;;20.10;11.70;;;6.70;99.90;;;;;;5094889;28;20070;-75
2022/10/20 05:54:55;;;;;;;19.23;11.85;;;6.70;99.90;;;;;;5096393;28;20381;-75
2022/10/20 05:57:21;;;;;;;16.63;12.07;;;6.70;99.90;;;;;;5106601;28;20130;-75
2022/10/20 05:59:47;;;;;;;20.13;12.45;;;6.70;99.90;;;;;;5076522;28;20129;-75
2022/10/20 06:02:13;;;;;;;23.50;13.40;;;6.70;99.90;;;;;;5076212;28;20040;-75
2022/10/20 06:04:38;;;;;;;16.30;12.70;;;6.70;99.90;;;;;;5094398;28;20102;-75
2022/10/20 06:07:04;;;;;;;18.27;12.85;;;6.70;99.90;;;;;;5094894;28;20040;-75
2022/10/20 06:09:31;;;;;;;17.90;12.75;;;6.70;99.90;;;;;;5078377;28;20044;-75
2022/10/20 06:11:57;;;;;;;21.38;12.32;;;6.70;99.90;;;;;;5093411;28;20040;-75
2022/10/20 06:14:24;;;;;;;20.70;13.00;;;6.60;99.90;;;;;;5094657;28;20050;-75
2022/10/20 06:16:51;;;;;;;20.88;13.07;;;6.70;99.90;;;;;;5095729;28;20081;-76
2022/10/20 06:19:16;;;;;;;18.35;12.93;;;6.70;99.90;;;;;;5114824;28;20036;-75
2022/10/20 06:21:42;;;;;;;17.33;12.05;;;6.70;99.90;;;;;;5105537;28;20108;-75
2022/10/20 06:24:09;;;;;;;19.08;13.10;;;6.70;99.90;;;;;;5088387;28;20092;-75
2022/10/20 06:26:35;;;;;;;18.02;12.57;;;6.70;99.90;;;;;;5096599;28;20071;-75
2022/10/20 06:29:03;;;;;;;19.73;13.10;;;6.70;99.90;;;;;;5114317;28;20118;-75
2022/10/20 06:31:37;;;;;;;18.88;13.45;;;6.70;99.90;;;;;;5095882;28;20040;-75
2022/10/20 06:34:05;;;;;;;19.55;12.98;;;6.70;99.90;;;;;;5100140;28;20040;-75
2022/10/20 06:36:37;;;;;;;22.08;13.07;;;6.80;99.90;;;;;;5094260;28;20056;-75
2022/10/20 06:39:04;;;;;;;19.45;12.45;;;6.80;99.90;;;;;;5075589;28;20465;-75
2022/10/20 06:41:31;;;;;;;19.95;12.32;;;6.90;99.90;;;;;;5093547;28;20046;-75
2022/10/20 06:43:58;;;;;;;22.02;13.10;;;7.40;99.90;;;;;;5058576;28;20061;-75
2022/10/20 06:46:32;;;;;;;18.58;12.32;;;6.90;99.90;;;;;;5094033;28;20489;-76
2022/10/20 06:49:02;;;;;;;20.98;13.75;;;7.00;99.90;;;;;;5087742;28;20039;-76
2022/10/20 06:51:28;;;;;;;16.92;13.13;;;7.00;99.90;;;;;;5093624;28;20062;-76
2022/10/20 06:53:54;;;;;;;19.65;13.88;;;7.00;99.90;;;;;;5092869;28;20071;-75
2022/10/20 06:56:24;;;;;;;19.05;13.88;;;7.10;99.90;;;;;;5058538;28;20445;-75
2022/10/20 06:58:52;;;;;;;17.88;13.02;;;7.10;99.90;;;;;;5092944;28;20042;-76
2022/10/20 07:01:25;;;;;;;19.75;12.02;;;7.20;99.90;;;;;;5059061;28;20554;-77
2022/10/20 07:03:57;;;;;;;18.73;12.70;;;7.20;99.90;;;;;;5095559;28;20043;-77
2022/10/20 07:06:28;;;;;;;17.15;12.32;;;7.30;99.90;;;;;;5075461;28;20532;-77
2022/10/20 07:08:55;;;;;;;20.08;12.82;;;7.30;99.90;;;;;;5093217;28;20386;-77
2022/10/20 07:11:26;;;;;;;17.60;12.32;;;8.40;99.90;;;;;;5093248;28;20048;-76
2022/10/20 07:13:51;;;;;;;17.40;12.75;;;7.40;99.90;;;;;;5075147;28;20397;-76
2022/10/20 07:16:20;;;;;;;21.52;13.23;;;7.40;99.90;;;;;;5075021;28;20032;-76
2022/10/20 07:18:46;;;;;;;22.42;13.30;;;7.40;99.90;;;;;;5076063;28;20438;-76
2022/10/20 07:21:14;;;;;;;22.95;12.77;;;8.60;99.90;;;;;;5058213;28;20040;-76
2022/10/20 07:23:40;;;;;;;20.75;12.75;;;7.50;99.90;;;;;;5093066;28;20088;-76
2022/10/20 07:26:10;;;;;;;20.50;12.88;;;7.70;99.90;;;;;;5095299;28;20447;-76
2022/10/20 07:28:38;;;;;;;17.52;11.73;;;8.00;99.90;;;;;;5092700;28;20082;-76
2022/10/20 07:31:13;;;;;;;18.80;13.27;;;7.50;99.90;;;;;;5085333;28;20520;-76
2022/10/20 07:33:39;;;;;;;19.65;13.18;;;7.50;99.90;;;;;;5090785;28;20080;-76
2022/10/20 07:36:35;;;;;;;18.50;12.82;;;7.50;99.90;;;;;;5092491;28;20127;-77
2022/10/20 07:39:03;;;;;;;19.95;13.60;;;7.60;99.90;;;;;;5060435;28;20044;-76
2022/10/20 07:41:29;;;;;;;27.05;13.50;;;7.50;99.90;;;;;;5073967;28;20040;-78
2022/10/20 07:43:55;;;;;;;18.05;12.57;;;7.60;99.90;;;;;;5092446;28;20055;-76
2022/10/20 07:46:21;;;;;;;21.73;12.68;;;7.60;99.90;;;;;;5074837;28;20133;-77
2022/10/20 07:48:47;;;;;;;16.70;12.82;;;7.60;99.90;;;;;;5093426;28;20090;-76
2022/10/20 07:51:29;;;;;;;17.42;12.88;;;7.90;99.90;;;;;;5075557;28;20040;-77
2022/10/20 07:54:06;;;;;;;21.02;12.70;;;7.70;99.90;;;;;;5102687;28;20043;-77
2022/10/20 07:56:35;;;;;;;19.33;12.02;;;7.70;99.90;;;;;;5111667;28;20499;-76
2022/10/20 07:59:00;;;;;;;17.30;12.50;;;7.70;99.90;;;;;;5100466;28;20044;-76
2022/10/20 08:01:27;;;;;;;21.25;12.77;;;8.10;99.90;;;;;;5110620;28;20040;-76
2022/10/20 08:03:52;;;;;;;15.63;12.07;;;7.90;99.90;;;;;;5074607;28;20070;-76
2022/10/20 08:06:18;;;;;;;17.70;12.55;;;7.90;99.90;;;;;;5104968;28;20091;-77
2022/10/20 08:08:44;;;;;;;17.25;12.15;;;9.10;99.90;;;;;;5112177;28;20083;-76
2022/10/20 08:11:10;;;;;;;17.17;11.95;;;8.10;99.90;;;;;;5112359;28;20044;-77
2022/10/20 08:13:36;;;;;;;15.45;11.68;;;8.00;99.90;;;;;;5067772;28;20138;-78
2022/10/20 08:16:03;;;;;;;23.23;12.35;;;8.10;99.90;;;;;;5091025;28;20044;-77
2022/10/20 08:18:28;;;;;;;16.02;11.48;;;8.10;99.90;;;;;;5075032;28;20036;-77
2022/10/20 08:21:09;;;;;;;17.15;11.88;;;8.20;99.90;;;;;;5074999;28;20043;-78
2022/10/20 08:23:38;;;;;;;16.38;11.80;;;8.30;99.90;;;;;;5098045;28;20048;-75
2022/10/20 08:26:04;;;;;;;17.42;11.80;;;8.90;99.90;;;;;;5112775;28;20062;-78
2022/10/20 08:28:29;;;;;;;16.92;12.00;;;8.50;99.90;;;;;;5109639;28;20044;-76
2022/10/20 08:30:55;;;;;;;18.25;11.95;;;8.60;99.90;;;;;;5094239;28;20079;-76
2022/10/20 08:33:21;;;;;;;18.13;11.23;;;9.30;99.90;;;;;;5115495;28;20103;-76
2022/10/20 08:35:46;;;;;;;15.13;11.02;;;8.70;99.90;;;;;;5117689;28;20047;-76
2022/10/20 08:38:12;;;;;;;16.17;11.63;;;8.70;99.90;;;;;;5115593;28;20051;-76
2022/10/20 08:40:41;;;;;;;15.52;10.90;;;10.20;99.90;;;;;;5097233;28;20140;-76
2022/10/20 08:43:18;;;;;;;17.48;10.85;;;8.80;99.90;;;;;;5115680;28;20044;-76
2022/10/20 08:45:44;;;;;;;18.20;10.77;;;9.00;99.90;;;;;;5092660;28;20044;-76
2022/10/20 08:48:17;;;;;;;15.55;10.73;;;10.30;99.90;;;;;;5092612;28;20036;-77
2022/10/20 08:50:45;;;;;;;16.33;10.60;;;9.10;99.90;;;;;;5074685;28;20051;-78
2022/10/20 08:53:11;;;;;;;18.25;10.57;;;9.20;99.90;;;;;;5097147;28;20097;-77
2022/10/20 08:55:37;;;;;;;17.92;10.27;;;9.20;99.90;;;;;;5097442;28;20129;-79
2022/10/20 08:58:14;;;;;;;16.85;10.82;;;9.30;99.90;;;;;;5112342;28;20067;-78
2022/10/20 09:00:42;;;;;;;14.80;10.75;;;9.40;99.90;;;;;;5096996;28;20035;-78
2022/10/20 09:03:23;;;;;;;20.23;10.23;;;10.50;99.90;;;;;;5097347;28;20051;-77
2022/10/20 09:05:59;;;;;;;13.25;9.52;;;9.80;99.90;;;;;;5116354;28;20035;-78
2022/10/20 09:08:29;;;;;;;16.98;10.15;;;10.00;99.90;;;;;;5097302;28;20043;-78
2022/10/20 09:10:55;;;;;;;17.63;9.30;;;10.60;99.90;;;;;;5115998;28;20380;-78
2022/10/20 09:13:30;;;;;;;15.75;9.15;;;11.50;99.90;;;;;;5097101;28;20042;-77
2022/10/20 09:16:15;;;;;;;14.27;8.38;;;;;;;;;;5097836;28;20047;-77
2022/10/20 09:18:41;;;;;;;13.02;9.15;;;;;;;;;;5080393;28;20403;-77
2022/10/20 09:21:12;;;;;;;14.13;9.68;;;;;;;;;;5096716;28;20042;-77
2022/10/20 09:23:41;;;;;;;14.43;8.40;;;;;;;;;;5112974;28;20106;-77
2022/10/20 09:26:13;;;;;;;19.52;8.52;;;;;;;;;;5114799;28;20126;-77
2022/10/20 09:28:39;;;;;;;13.45;8.18;;;;;;;;;;5114807;28;20126;-77
2022/10/20 09:31:19;;;;;;;23.25;9.02;;;;;;;;;;5081418;28;20083;-77
2022/10/20 09:33:46;;;;;;;14.00;8.32;;;;;;;;;;5080255;28;20043;-77
2022/10/20 09:36:13;;;;;;;18.30;8.95;;;;;;;;;;5096050;28;20047;-77
2022/10/20 09:38:44;;;;;;;10.35;7.93;;;;;;;;;;5097015;28;20143;-77
2022/10/20 09:41:13;;;;;;;12.20;7.90;;;;;;;;;;5079886;28;20036;-77
2022/10/20 09:43:59;;;;;;;10.82;7.43;;;;;;;;;;5112335;28;20043;-77
2022/10/20 09:46:25;;;;;;;;;;;;;;;;;;5091276;28;20147;-78
2022/10/20 09:48:51;;;;;;;10.60;7.40;;;;;;;;;;5095303;28;20006;-77
2022/10/20 09:51:19;;;;;;;15.57;8.15;;;;;;;;;;5095290;28;20127;-78
2022/10/20 09:54:05;;;;;;;12.75;7.78;;;;;;;;;;5094617;28;20071;-77
2022/10/20 09:56:31;;;;;;;;;;;;;;;;;;5075404;28;20040;-77
2022/10/20 09:58:59;;;;;;;11.63;7.93;;;;;;;;;;5094572;28;19923;-77
2022/10/20 10:01:25;;;;;;;11.10;7.10;;;;;;;;;;5094644;28;20051;-77
2022/10/20 10:03:52;;;;;;;12.63;7.55;;;;;;;;;;5094264;28;20047;-77
2022/10/20 10:06:28;;;;;;;11.35;7.50;;;;;;;;;;5060368;28;20063;-77
2022/10/20 10:08:55;;;;;;;11.48;7.60;;;;;;;;;;5094039;28;20044;-77
2022/10/20 10:11:22;;;;;;;9.93;7.60;;;;;;;;;;5094495;28;20044;-77
2022/10/20 10:13:49;;;;;;;12.63;7.03;;;;;;;;;;5096543;28;20050;-76
2022/10/20 10:16:24;;;;;;;11.75;7.53;;;;;;;;;;5097615;28;20044;-76
2022/10/20 10:19:01;;;;;;;10.38;7.40;;;;;;;;;;5097256;28;20047;-78
2022/10/20 10:21:28;;;;;;;16.67;8.10;;;;;;;;;;5080752;28;20047;-77
2022/10/20 10:23:55;;;;;;;12.05;8.02;;;;;;;;;;5080559;28;20357;-77
2022/10/20 10:26:43;;;;;;;15.63;7.80;;;;;;;;;;5080851;28;20036;-78
2022/10/20 10:29:38;;;;;;;13.13;6.40;;;;;;;;;;5096071;28;20377;-77
2022/10/20 10:32:15;;;;;;;12.20;7.25;;;;;;;;;;5077889;28;20059;-78
2022/10/20 10:34:56;;;;;;;14.23;7.20;;;;;;;;;;5079484;28;20149;-77
2022/10/20 10:37:22;;;;;;;10.98;7.07;;;;;;;;;;5090518;28;20612;-79
2022/10/20 10:39:48;;;;;;;12.27;6.85;;;;;;;;;;5073732;28;20389;-77
2022/10/20 10:42:17;;;;;;;12.38;6.88;;;;;;;;;;5072213;28;20062;-78
2022/10/20 10:44:47;;;;;;;8.93;6.40;;;;;;;;;;5075133;28;20134;-77
2022/10/20 10:47:13;;;;;;;10.38;6.63;;;;;;;;;;5092250;28;20534;-75
2022/10/20 10:49:51;;;;;;;9.77;6.30;;;;;;;;;;5093148;28;20048;-74
2022/10/20 10:52:26;;;;;;;8.73;6.25;;;;;;;;;;5092838;28;20040;-76
2022/10/20 10:55:04;;;;;;;8.32;5.82;;;;;;;;;;5093499;28;20115;-76
2022/10/20 10:57:39;;;;;;;9.10;5.75;;;;;;;;;;5092490;28;20047;-76
2022/10/20 11:00:29;;;;;;;9.45;6.32;;;;;;;;;;5091789;28;20136;-77
2022/10/20 11:02:55;;;;;;;8.52;6.07;;;;;;;;;;5084924;28;20056;-77
2022/10/20 11:05:25;;;;;;;7.90;5.80;;;;;;;;;;5092402;28;20066;-77
2022/10/20 11:08:10;;;;;;;8.60;5.90;;;;;;;;;;5093284;28;20093;-78
2022/10/20 11:10:36;;;;;;;11.27;6.10;;;;;;;;;;5093337;28;20036;-77
2022/10/20 11:13:08;;;;;;;8.35;5.60;;;;;;;;;;5090042;28;20044;-78
2022/10/20 11:15:53;;;;;;;7.47;5.57;;;;;;;;;;5092678;28;20044;-77
2022/10/20 11:18:31;;;;;;;12.10;5.70;;;;;;;;;;5092269;28;20055;-77
2022/10/20 11:21:24;;;;;;;11.00;6.38;;;;;;;;;;5093502;28;20043;-77
2022/10/20 11:24:04;;;;;;;10.55;5.88;;;;;;;;;;5068415;28;20492;-78
2022/10/20 11:26:35;;;;;;;7.97;5.72;;;;;;;;;;5092657;28;20126;-77
2022/10/20 11:29:03;;;;;;;9.30;5.80;;;;;;;;;;5093695;28;20404;-77
2022/10/20 11:31:38;;;;;;;8.20;5.65;;;;;;;;;;5092125;28;20512;-77
2022/10/20 11:34:06;;;;;;;9.63;6.10;;;;;;;;;;5090433;28;20148;-77
2022/10/20 11:36:35;;;;;;;8.15;5.45;;;;;;;;;;5096340;28;20368;-77
2022/10/20 11:39:03;;;;;;;11.35;6.00;;;;;;;;;;5113097;28;20196;-77
2022/10/20 11:41:44;;;;;;;7.80;6.05;;;;;;;;;;5073328;28;20476;-77
2022/10/20 11:44:10;;;;;;;8.48;6.10;;;;;;;;;;5074211;28;20193;-76
2022/10/20 11:46:40;;;;;;;9.02;6.38;;;;;;;;;;5074673;28;20077;-77
2022/10/20 11:49:06;;;;;;;9.35;6.07;;;;;;;;;;5092494;28;20130;-77
2022/10/20 11:51:32;;;;;;;11.38;6.30;;;;;;;;;;5091336;28;20493;-77
2022/10/20 11:54:17;;;;;;;12.80;7.47;;;;;;;;;;5074275;28;20083;-77
2022/10/20 11:57:02;;;;;;;10.10;6.32;;;;;;;;;;5075300;28;20403;-77
2022/10/20 11:59:46;;;;;;;9.95;6.68;;;;;;;;;;5092765;28;20097;-77
2022/10/20 12:02:31;;;;;;;12.10;7.05;;;;;;;;;;5057803;28;20048;-77
2022/10/20 12:05:12;;;;;;;11.27;6.85;;;10.60;99.90;;;;;;5074426;28;20082;-77
2022/10/20 12:08:01;;;;;;;11.32;6.50;;;14.30;99.90;;;;;;5073870;28;20084;-78
2022/10/20 12:10:59;;;;;;;11.85;7.75;;;14.10;99.90;;;;;;5074796;28;20127;-78
2022/10/20 12:13:52;;;;;;;10.98;7.15;;;14.00;99.90;;;;;;5056023;28;20048;-78
2022/10/20 12:16:54;;;;;;;12.75;7.15;;;13.90;99.90;;;;;;5075758;28;20134;-78
2022/10/20 12:19:25;;;;;;;11.88;7.38;;;13.80;99.90;;;;;;5075208;28;20407;-78
2022/10/20 12:22:00;;;;;;;13.52;7.32;;;13.70;99.90;;;;;;5057328;28;20044;-78
2022/10/20 12:24:36;;;;;;;9.70;7.18;;;13.70;99.90;;;;;;5071931;28;20044;-78
2022/10/20 12:27:07;;;;;;;12.77;7.45;;;13.70;99.90;;;;;;5074177;28;20079;-78
2022/10/20 12:29:32;;;;;;;12.80;7.60;;;13.60;99.90;;;;;;5074309;28;20093;-78
2022/10/20 12:32:20;;;;;;;9.32;7.28;;;14.30;99.90;;;;;;5093607;28;20036;-78
2022/10/20 12:34:47;;;;;;;11.93;7.32;;;13.50;99.90;;;;;;5074377;28;20128;-78
2022/10/20 12:37:19;;;;;;;10.98;7.47;;;13.50;99.90;;;;;;5091907;28;20151;-78
2022/10/20 12:39:47;;;;;;;10.10;7.13;;;13.50;99.90;;;;;;5091729;28;20055;-78
2022/10/20 12:42:26;;;;;;;10.15;7.70;;;13.50;99.90;;;;;;5091784;28;20489;-78
2022/10/20 12:44:52;;;;;;;11.25;7.82;;;13.50;99.90;;;;;;5073828;28;20385;-78
2022/10/20 12:47:25;;;;;;;15.85;8.40;;;13.40;99.90;;;;;;5073979;28;20040;-78
2022/10/20 12:50:34;;;;;;;13.32;8.15;;;13.40;99.90;;;;;;5091541;28;20073;-78
2022/10/20 12:53:24;;;;;;;14.00;8.48;;;13.20;99.90;;;;;;5074491;28;20040;-78
2022/10/20 12:55:59;;;;;;;12.13;8.02;;;13.20;99.90;;;;;;5091337;28;20079;-78
2022/10/20 12:58:31;;;;;;;12.55;8.60;;;13.20;99.90;;;;;;5090221;28;20040;-78
2022/10/20 13:00:57;;;;;;;12.55;8.55;;;13.20;99.90;;;;;;5073967;28;20058;-78
2022/10/20 13:03:51;;;;;;;11.52;9.15;;;14.10;99.90;;;;;;5073354;28;20048;-78
2022/10/20 13:06:23;;;;;;;12.20;8.82;;;13.10;99.90;;;;;;5070980;28;20519;-78
2022/10/20 13:09:04;;;;;;;14.77;9.07;;;13.80;99.90;;;;;;5091343;28;20389;-78
2022/10/20 13:11:36;;;;;;;14.02;9.30;;;12.90;99.90;;;;;;5057077;28;20152;-78
2022/10/20 13:14:11;;;;;;;13.52;9.55;;;13.40;99.90;;;;;;5073159;28;20045;-78
2022/10/20 13:16:40;;;;;;;18.75;10.02;;;13.40;99.90;;;;;;5091478;28;20044;-78
2022/10/20 13:19:12;;;;;;;13.85;10.32;;;12.70;99.90;;;;;;5076017;28;20433;-78
2022/10/20 13:21:38;;;;;;;15.38;10.48;;;12.70;99.90;;;;;;5095117;28;20054;-78